Portada
METAR-TAF:

METAR-TAF

Aeroports :

Marham, Anglaterra

latitud: 52-39N, longitud: 000-34E, altitud: 23 m

Observació

L'informe es va fer fa 33 minuts, a les 08:20 UTC
Vent 13 kt del Sud/Sud-Oest
Temperatura 17°C
Humitat 72%
Pressió 1023 hPa
Visibilitat 10 km o més
sense núvols per sota de 1500 mi sense presència de cumulonimbus.

METAR: EGYM 220820Z 21013KT CAVOK 17/12 Q1023 NOSIG RMK BLU BLU

Hora: 09:53 (08:53 UTC)

Pronòstic

L'informe es va fer fa 1 hora i 12 minuts, a les 07:41 UTC
Pronòstic vàlid del 22 a les 09 UTC al 22 a les 18 UTC
Vent 12 kt del Sud/Sud-Oest
Visibilitat 10 km o més
Núvols disperses a una alçada de 3500 ft
Probabilitat 30% :
Temporalment
l' 22 a les 09 UTC al 22 a les 11 UTC
Núvols disperses a una alçada de 2400 ft

TAF: EGYM 220741Z 2209/2218 21012KT 9999 SCT035 PROB30 TEMPO 2209/2211 SCT024

Observacions i pronòstics meteorològics de més de 4000 aeroports (METAR i TAF).

Les estacions disponibles són els punts grocs i vermells al mapa.

Posi el ratolí al punt desitjat per veure el nom de l'estació.

Feu clic per veure les observacions i els pronòstics meteorològics.

Per canviar el mapa: feu clic els botons verds amb una creu de color negre per apropar; al botó verd amb un guió per allunyar la imatge; o en les fletxes verdes per a mapes adjacents.


METAR-TAF: